createdAt,value
2019-06-08T00:01:51.059Z,99.90
2019-06-08T00:04:55.478Z,99.90
2019-06-08T00:08:00.235Z,99.90
2019-06-08T00:11:04.855Z,99.90
2019-06-08T00:14:09.595Z,99.90
2019-06-08T00:17:27.322Z,99.90
2019-06-08T00:20:21.781Z,99.90
2019-06-08T00:23:26.293Z,99.90
2019-06-08T00:26:30.733Z,99.90
2019-06-08T00:29:35.221Z,99.90
2019-06-08T00:32:39.711Z,99.90
2019-06-08T00:35:44.154Z,99.90
2019-06-08T00:38:48.629Z,99.90
2019-06-08T00:41:53.081Z,99.90
2019-06-08T00:44:57.547Z,99.90
2019-06-08T00:48:02.001Z,99.90
2019-06-08T00:51:06.810Z,99.90
2019-06-08T00:54:11.234Z,99.90
2019-06-08T00:57:15.699Z,99.90
2019-06-08T01:00:20.452Z,99.90
2019-06-08T01:03:25.860Z,99.90
2019-06-08T01:06:30.329Z,99.90
2019-06-08T01:09:34.791Z,99.90
2019-06-08T01:12:39.474Z,99.90
2019-06-08T01:15:43.911Z,99.90
2019-06-08T01:18:48.385Z,99.90
2019-06-08T01:21:52.839Z,99.90
2019-06-08T01:24:57.578Z,99.90
2019-06-08T01:28:02.024Z,99.90
2019-06-08T01:31:06.732Z,99.90
2019-06-08T01:34:11.181Z,99.90
2019-06-08T01:37:15.626Z,99.90
2019-06-08T01:40:21.295Z,99.90
2019-06-08T01:43:26.011Z,99.90
2019-06-08T01:46:30.455Z,99.90
2019-06-08T01:49:34.908Z,99.90
2019-06-08T01:52:39.370Z,99.90
2019-06-08T01:55:44.199Z,99.90
2019-06-08T01:58:48.648Z,99.90
2019-06-08T02:01:53.089Z,99.90
2019-06-08T02:04:57.868Z,99.90
2019-06-08T02:08:02.310Z,99.90
2019-06-08T02:11:07.220Z,99.90
2019-06-08T02:14:11.669Z,99.90
2019-06-08T02:17:16.108Z,99.90
2019-06-08T02:20:21.000Z,99.90
2019-06-08T02:23:26.741Z,99.90
2019-06-08T02:26:32.171Z,99.90
2019-06-08T02:29:38.159Z,99.90
2019-06-08T02:32:42.602Z,99.90
2019-06-08T02:35:47.308Z,99.90
2019-06-08T02:38:51.745Z,99.90
2019-06-08T02:41:56.203Z,99.90
2019-06-08T02:45:00.664Z,99.90
2019-06-08T02:48:05.653Z,99.90
2019-06-08T02:51:10.279Z,99.90
2019-06-08T02:54:14.979Z,99.90
2019-06-08T02:57:22.066Z,99.90
2019-06-08T03:00:26.519Z,99.90
2019-06-08T03:03:33.836Z,99.90
2019-06-08T03:06:41.513Z,99.90
2019-06-08T03:09:48.418Z,99.90
2019-06-08T03:12:56.220Z,99.90
2019-06-08T03:16:00.680Z,99.90
2019-06-08T03:19:20.968Z,99.90
2019-06-08T03:22:11.455Z,99.90
2019-06-08T03:25:15.907Z,99.90
2019-06-08T03:28:20.346Z,99.90
2019-06-08T03:31:24.834Z,99.90
2019-06-08T03:34:29.263Z,99.90
2019-06-08T03:37:35.623Z,99.90
2019-06-08T03:40:40.632Z,99.90
2019-06-08T03:43:46.071Z,99.90
2019-06-08T03:46:50.521Z,99.90
2019-06-08T03:49:57.657Z,99.90
2019-06-08T03:53:01.146Z,99.90
2019-06-08T03:56:05.981Z,99.90
2019-06-08T03:59:10.427Z,99.90
2019-06-08T04:02:14.872Z,99.90
2019-06-08T04:05:19.331Z,99.90
2019-06-08T04:08:23.763Z,99.90
2019-06-08T04:11:28.213Z,99.90
2019-06-08T04:14:32.662Z,99.90
2019-06-08T04:17:37.953Z,99.90
2019-06-08T04:20:45.212Z,99.90
2019-06-08T04:23:50.459Z,99.90
2019-06-08T04:26:54.925Z,99.90
2019-06-08T04:29:59.371Z,99.90
2019-06-08T04:33:03.821Z,99.90
2019-06-08T04:36:08.613Z,99.90
2019-06-08T04:39:13.066Z,99.90
2019-06-08T04:42:17.499Z,99.90
2019-06-08T04:45:21.942Z,99.90
2019-06-08T04:48:26.708Z,99.90
2019-06-08T04:51:31.172Z,99.90
2019-06-08T04:54:35.604Z,99.90
2019-06-08T04:57:41.901Z,99.90
2019-06-08T05:00:48.231Z,99.90
2019-06-08T05:03:52.406Z,99.90
2019-06-08T05:06:56.857Z,99.90
2019-06-08T05:10:01.309Z,99.90
2019-06-08T05:13:06.028Z,99.90
2019-06-08T05:16:10.464Z,99.90
2019-06-08T05:19:15.246Z,99.90
2019-06-08T05:22:19.975Z,99.90
2019-06-08T05:25:24.703Z,99.90
2019-06-08T05:28:29.150Z,99.90
2019-06-08T05:31:33.611Z,99.90
2019-06-08T05:34:39.284Z,99.80
2019-06-08T05:37:43.797Z,99.50
2019-06-08T05:40:48.217Z,99.20
2019-06-08T05:43:52.700Z,99.10
2019-06-08T05:46:57.165Z,98.90
2019-06-08T05:50:01.629Z,98.70
2019-06-08T05:53:06.236Z,98.30
2019-06-08T05:56:10.677Z,98.50
2019-06-08T05:59:15.136Z,98.60
2019-06-08T06:02:19.587Z,98.60
2019-06-08T06:05:24.023Z,99.10
2019-06-08T06:08:28.783Z,99.00
2019-06-08T06:11:33.510Z,98.30
2019-06-08T06:14:37.985Z,98.60
2019-06-08T06:17:43.958Z,99.00
2019-06-08T06:20:49.391Z,99.50
2019-06-08T06:23:53.937Z,99.40
2019-06-08T06:26:58.461Z,99.20
2019-06-08T06:30:03.908Z,99.20
2019-06-08T06:33:08.359Z,98.70
2019-06-08T06:36:13.102Z,98.50
2019-06-08T06:39:17.557Z,98.20
2019-06-08T06:42:24.838Z,97.10
2019-06-08T06:45:28.189Z,97.00
2019-06-08T06:48:32.654Z,97.10
2019-06-08T06:51:37.098Z,96.50
2019-06-08T06:54:42.671Z,96.30
2019-06-08T06:57:47.553Z,95.50
2019-06-08T07:00:51.994Z,95.00
2019-06-08T07:03:56.516Z,95.30
2019-06-08T07:07:01.005Z,95.00
2019-06-08T07:10:08.866Z,94.00
2019-06-08T07:13:13.321Z,94.20
2019-06-08T07:16:19.300Z,94.20
2019-06-08T07:19:24.256Z,94.60
2019-06-08T07:22:28.698Z,93.70
2019-06-08T07:25:33.146Z,94.30
2019-06-08T07:28:37.601Z,92.60
2019-06-08T07:31:42.041Z,92.80
2019-06-08T07:34:47.841Z,92.60
2019-06-08T07:37:53.716Z,92.10
2019-06-08T07:40:59.941Z,92.60
2019-06-08T07:44:04.633Z,92.80
2019-06-08T07:47:09.394Z,91.50
2019-06-08T07:50:14.780Z,90.90
2019-06-08T07:53:19.220Z,88.70
2019-06-08T07:56:23.747Z,87.50
2019-06-08T07:59:28.207Z,86.60
2019-06-08T08:02:32.646Z,84.70
2019-06-08T08:05:37.113Z,84.70
2019-06-08T08:08:41.546Z,87.30
2019-06-08T08:11:46.306Z,85.80
2019-06-08T08:14:51.321Z,82.80
2019-06-08T08:17:55.779Z,83.30
2019-06-08T08:21:09.051Z,80.80
2019-06-08T08:24:07.310Z,81.50
2019-06-08T08:27:11.883Z,84.30
2019-06-08T08:30:17.327Z,81.30
2019-06-08T08:33:22.675Z,78.50
2019-06-08T08:36:29.430Z,79.50
2019-06-08T08:39:33.306Z,81.40
2019-06-08T08:42:38.744Z,80.10
2019-06-08T08:45:43.401Z,77.70
2019-06-08T08:48:48.611Z,77.50
2019-06-08T08:51:54.033Z,78.10
2019-06-08T08:55:00.459Z,75.70
2019-06-08T08:58:04.735Z,76.70
2019-06-08T09:01:09.196Z,70.00
2019-06-08T09:04:13.641Z,73.90
2019-06-08T09:07:18.469Z,73.60
2019-06-08T09:10:23.033Z,73.70
2019-06-08T09:13:28.252Z,73.40
2019-06-08T09:16:32.814Z,75.90
2019-06-08T09:19:38.231Z,72.90
2019-06-08T09:22:53.780Z,74.00
2019-06-08T09:25:49.166Z,75.00
2019-06-08T09:28:54.490Z,76.30
2019-06-08T09:32:01.564Z,71.60
2019-06-08T09:35:09.101Z,74.20
2019-06-08T09:38:12.516Z,70.40
2019-06-08T09:41:18.666Z,72.20
2019-06-08T09:44:23.264Z,72.30
2019-06-08T09:47:28.136Z,75.20
2019-06-08T09:50:32.622Z,71.20
2019-06-08T09:53:41.210Z,69.80
2019-06-08T09:56:43.547Z,68.90
2019-06-08T09:59:48.315Z,72.10
2019-06-08T10:02:54.743Z,66.60
2019-06-08T10:06:04.965Z,68.50
2019-06-08T10:09:08.979Z,67.50
2019-06-08T10:12:13.556Z,71.60
2019-06-08T10:15:18.365Z,70.40
2019-06-08T10:18:22.844Z,65.60
2019-06-08T10:21:28.419Z,64.40
2019-06-08T10:24:32.984Z,69.40
2019-06-08T10:27:38.616Z,62.90
2019-06-08T10:30:43.155Z,64.20
2019-06-08T10:33:48.206Z,63.50
2019-06-08T10:36:52.835Z,66.60
2019-06-08T10:40:00.656Z,65.80
2019-06-08T10:43:04.598Z,63.80
2019-06-08T10:46:16.349Z,62.70
2019-06-08T10:49:18.417Z,61.90
2019-06-08T10:52:22.006Z,70.50
2019-06-08T10:55:28.057Z,70.40
2019-06-08T10:58:32.716Z,64.40
2019-06-08T11:01:38.580Z,65.50
2019-06-08T11:04:43.571Z,60.50
2019-06-08T11:07:48.233Z,62.30
2019-06-08T11:10:52.634Z,62.50
2019-06-08T11:13:58.391Z,60.80
2019-06-08T11:17:04.898Z,57.80
2019-06-08T11:20:13.088Z,56.70
2019-06-08T11:23:18.737Z,56.50
2019-06-08T11:26:24.596Z,58.40
2019-06-08T11:29:30.686Z,56.90
2019-06-08T11:32:35.156Z,60.90
2019-06-08T11:35:39.601Z,63.30
2019-06-08T11:38:44.061Z,58.60
2019-06-08T11:41:48.563Z,56.30
2019-06-08T11:44:53.043Z,58.50
2019-06-08T11:47:58.437Z,56.80
2019-06-08T11:51:04.559Z,58.00
2019-06-08T11:54:27.372Z,56.40
2019-06-08T11:57:17.473Z,54.70
2019-06-08T12:00:53.235Z,58.60
2019-06-08T12:03:58.016Z,61.50
2019-06-08T12:07:04.060Z,52.30
2019-06-08T12:10:10.562Z,53.00
2019-06-08T12:13:17.514Z,53.70
2019-06-08T12:16:22.309Z,54.60
2019-06-08T12:19:28.442Z,55.90
2019-06-08T12:22:33.175Z,53.60
2019-06-08T12:25:37.889Z,54.70
2019-06-08T12:28:42.343Z,57.10
2019-06-08T12:31:47.044Z,55.10
2019-06-08T12:34:51.500Z,58.90
2019-06-08T12:37:58.128Z,57.20
2019-06-08T12:41:02.144Z,53.20
2019-06-08T12:44:09.714Z,56.70
2019-06-08T12:47:16.100Z,54.90
2019-06-08T12:50:20.069Z,55.30
2019-06-08T12:53:24.678Z,55.20
2019-06-08T12:56:29.190Z,55.70
2019-06-08T12:59:33.663Z,54.30
2019-06-08T13:02:38.521Z,60.80
2019-06-08T13:05:43.095Z,62.00
2019-06-08T13:08:47.854Z,64.90
2019-06-08T13:11:52.358Z,56.20
2019-06-08T13:14:58.259Z,54.80
2019-06-08T13:18:02.830Z,62.10
2019-06-08T13:21:20.329Z,61.90
2019-06-08T13:24:13.491Z,63.40
2019-06-08T13:27:21.517Z,63.60
2019-06-08T13:30:26.434Z,64.30
2019-06-08T13:33:30.616Z,59.70
2019-06-08T13:36:35.077Z,62.80
2019-06-08T13:39:39.527Z,62.90
2019-06-08T13:42:43.964Z,59.40
2019-06-08T13:45:51.289Z,61.10
2019-06-08T13:48:54.603Z,62.20
2019-06-08T13:51:59.059Z,63.70
2019-06-08T13:55:05.356Z,60.30
2019-06-08T13:58:09.793Z,64.00
2019-06-08T14:01:15.350Z,60.70
2019-06-08T14:04:21.057Z,60.00
2019-06-08T14:07:31.778Z,64.70
2019-06-08T14:10:41.177Z,63.80
2019-06-08T14:13:47.933Z,60.90
2019-06-08T14:16:52.075Z,63.10
2019-06-08T14:19:58.690Z,61.80
2019-06-08T14:23:02.716Z,61.20
2019-06-08T14:26:08.304Z,58.50
2019-06-08T14:29:12.882Z,61.90
2019-06-08T14:32:18.942Z,61.40
2019-06-08T14:35:25.344Z,62.30
2019-06-08T14:38:38.296Z,61.90
2019-06-08T14:41:36.806Z,61.00
2019-06-08T14:44:41.261Z,60.10
2019-06-08T14:47:47.579Z,59.60
2019-06-08T14:50:51.880Z,59.10
2019-06-08T14:53:58.266Z,58.50
2019-06-08T14:57:03.244Z,59.80
2019-06-08T15:00:11.898Z,61.80
2019-06-08T15:03:14.709Z,59.80
2019-06-08T15:06:19.403Z,61.40
2019-06-08T15:09:23.886Z,61.70
2019-06-08T15:12:31.076Z,59.40
2019-06-08T15:15:34.848Z,58.30
2019-06-08T15:18:39.290Z,59.70
2019-06-08T15:21:43.759Z,59.30
2019-06-08T15:24:48.205Z,59.60
2019-06-08T15:27:52.821Z,58.90
2019-06-08T15:30:59.790Z,59.90
2019-06-08T15:34:04.215Z,58.40
2019-06-08T15:37:09.432Z,59.50
2019-06-08T15:40:14.556Z,60.00
2019-06-08T15:43:19.004Z,59.80
2019-06-08T15:46:24.109Z,59.40
2019-06-08T15:49:30.606Z,59.80
2019-06-08T15:52:35.661Z,58.40
2019-06-08T15:55:41.461Z,58.20
2019-06-08T15:58:48.529Z,57.90
2019-06-08T16:01:52.355Z,58.50
2019-06-08T16:04:56.808Z,57.60
2019-06-08T16:08:01.264Z,58.60
2019-06-08T16:11:05.745Z,58.10
2019-06-08T16:14:10.195Z,56.10
2019-06-08T16:17:14.635Z,58.40
2019-06-08T16:20:19.085Z,60.70
2019-06-08T16:23:23.528Z,59.60
2019-06-08T16:26:27.988Z,59.80
2019-06-08T16:29:33.324Z,59.60
2019-06-08T16:32:37.869Z,59.40
2019-06-08T16:35:42.327Z,58.40
2019-06-08T16:38:46.842Z,59.60
2019-06-08T16:41:51.287Z,60.00
2019-06-08T16:44:55.897Z,59.20
2019-06-08T16:48:00.347Z,59.30
2019-06-08T16:51:04.807Z,58.50
2019-06-08T16:54:09.505Z,60.50
2019-06-08T16:57:13.964Z,58.80
2019-06-08T17:00:30.814Z,59.10
2019-06-08T17:03:25.068Z,60.30
2019-06-08T17:06:29.519Z,59.60
2019-06-08T17:09:34.247Z,59.40
2019-06-08T17:12:39.182Z,61.40
2019-06-08T17:15:43.803Z,61.30
2019-06-08T17:18:48.311Z,62.40
2019-06-08T17:21:52.760Z,63.20
2019-06-08T17:24:57.204Z,64.50
2019-06-08T17:28:01.655Z,65.80
2019-06-08T17:31:06.120Z,64.80
2019-06-08T17:34:10.552Z,67.30
2019-06-08T17:37:15.003Z,69.60
2019-06-08T17:40:19.448Z,67.70
2019-06-08T17:43:24.296Z,67.10
2019-06-08T17:46:28.795Z,66.20
2019-06-08T17:49:34.450Z,66.40
2019-06-08T17:52:39.023Z,66.80
2019-06-08T17:55:43.997Z,66.50
2019-06-08T17:58:48.491Z,67.00
2019-06-08T18:01:52.946Z,69.00
2019-06-08T18:04:57.969Z,69.60
2019-06-08T18:08:02.636Z,69.80
2019-06-08T18:11:08.084Z,70.50
2019-06-08T18:14:12.711Z,69.00
2019-06-08T18:17:17.883Z,69.40
2019-06-08T18:20:22.717Z,70.80
2019-06-08T18:23:27.912Z,73.00
2019-06-08T18:26:34.149Z,74.50
2019-06-08T18:29:39.629Z,75.50
2019-06-08T18:32:46.352Z,79.40
2019-06-08T18:35:51.545Z,80.40
2019-06-08T18:38:58.025Z,82.80
2019-06-08T18:42:02.168Z,84.10
2019-06-08T18:45:07.663Z,84.10
2019-06-08T18:48:12.115Z,83.00
2019-06-08T18:51:17.537Z,86.00
2019-06-08T18:54:22.078Z,86.40
2019-06-08T18:57:27.494Z,87.20
2019-06-08T19:00:41.163Z,88.40
2019-06-08T19:03:47.152Z,89.60
2019-06-08T19:06:50.644Z,90.00
2019-06-08T19:09:57.852Z,89.80
2019-06-08T19:13:02.672Z,90.80
2019-06-08T19:16:07.599Z,90.90
2019-06-08T19:19:12.160Z,91.40
2019-06-08T19:22:19.010Z,91.60
2019-06-08T19:25:22.768Z,91.60
2019-06-08T19:28:35.767Z,92.20
2019-06-08T19:31:33.704Z,92.50
2019-06-08T19:34:40.671Z,92.70
2019-06-08T19:37:44.342Z,93.20
2019-06-08T19:40:48.791Z,92.90
2019-06-08T19:43:54.799Z,93.40
2019-06-08T19:46:59.486Z,93.60
2019-06-08T19:50:04.497Z,93.70
2019-06-08T19:53:08.929Z,93.80
2019-06-08T19:56:13.387Z,94.00
2019-06-08T19:59:18.419Z,93.80
2019-06-08T20:02:22.967Z,94.20
2019-06-08T20:05:28.520Z,94.50
2019-06-08T20:08:33.061Z,94.50
2019-06-08T20:11:43.259Z,94.50
2019-06-08T20:14:43.766Z,94.70
2019-06-08T20:17:50.302Z,95.20
2019-06-08T20:20:54.731Z,95.00
2019-06-08T20:23:59.179Z,95.70
2019-06-08T20:27:03.995Z,95.90
2019-06-08T20:30:12.210Z,96.00
2019-06-08T20:33:15.909Z,96.10
2019-06-08T20:36:20.379Z,96.10
2019-06-08T20:39:27.190Z,96.20
2019-06-08T20:42:31.076Z,96.40
2019-06-08T20:45:37.514Z,96.10
2019-06-08T20:48:42.171Z,96.40
2019-06-08T20:51:49.214Z,96.30
2019-06-08T20:54:53.551Z,96.60
2019-06-08T20:57:58.126Z,96.60
2019-06-08T21:01:02.581Z,96.80
2019-06-08T21:04:07.681Z,97.00
2019-06-08T21:07:12.225Z,97.60
2019-06-08T21:10:17.487Z,98.00
2019-06-08T21:13:22.015Z,97.90
2019-06-08T21:16:27.690Z,97.50
2019-06-08T21:19:32.226Z,97.40
2019-06-08T21:22:36.668Z,97.80
2019-06-08T21:25:41.116Z,98.20
2019-06-08T21:28:49.375Z,98.50
2019-06-08T21:31:53.392Z,98.80
2019-06-08T21:35:00.245Z,98.70
2019-06-08T21:38:19.210Z,99.00
2019-06-08T21:41:10.540Z,98.90
2019-06-08T21:44:14.977Z,98.90
2019-06-08T21:47:19.900Z,99.40
2019-06-08T21:50:24.357Z,99.20
2019-06-08T21:53:28.796Z,99.40
2019-06-08T21:56:33.244Z,99.60
2019-06-08T21:59:37.927Z,99.90
2019-06-08T22:02:42.434Z,99.90
2019-06-08T22:05:47.350Z,99.90
2019-06-08T22:08:51.984Z,99.90
2019-06-08T22:11:59.205Z,99.90
2019-06-08T22:15:03.147Z,99.90
2019-06-08T22:18:08.343Z,99.90
2019-06-08T22:21:12.951Z,99.90
2019-06-08T22:24:17.391Z,99.90
2019-06-08T22:27:21.846Z,99.90
2019-06-08T22:30:36.445Z,99.90
2019-06-08T22:33:33.217Z,99.90
2019-06-08T22:36:37.673Z,99.90
2019-06-08T22:39:42.113Z,99.90
2019-06-08T22:42:48.131Z,99.90
2019-06-08T22:45:54.316Z,99.90
2019-06-08T22:49:01.181Z,99.90
2019-06-08T22:52:07.962Z,99.90
2019-06-08T22:55:11.821Z,99.90
2019-06-08T22:58:19.008Z,99.90
2019-06-08T23:01:23.001Z,99.90
2019-06-08T23:04:27.814Z,99.90
2019-06-08T23:07:32.863Z,99.90
2019-06-08T23:10:37.589Z,99.90
2019-06-08T23:13:42.068Z,99.90
2019-06-08T23:16:47.187Z,99.90
2019-06-08T23:19:51.743Z,99.90
2019-06-08T23:22:58.325Z,99.90
2019-06-08T23:26:03.986Z,99.90
2019-06-08T23:29:09.697Z,99.90
2019-06-08T23:32:14.269Z,99.90
2019-06-08T23:35:18.721Z,99.90
2019-06-08T23:38:23.180Z,99.90
2019-06-08T23:41:27.639Z,99.90
2019-06-08T23:44:32.083Z,99.90
2019-06-08T23:47:38.371Z,99.90
2019-06-08T23:50:42.999Z,99.90
2019-06-08T23:53:47.885Z,99.90
2019-06-08T23:56:52.479Z,99.90
2019-06-08T23:59:59.358Z,99.90
